Time;durP1;ratioP1;P1;durP2;ratioP2;P2;SDS_P1;SDS_P2;PMS_P1;PMS_P2;Temp;Humidity;BMP_temperature;BMP_pressure;BME280_temperature;BME280_humidity;BME280_pressure;Samples;Min_cycle;Max_cycle;Signal;HPM_P1;HPM_P2
2023/01/12 00:01:41;;;;;;;14.33;3.67;;;9.20;99.90;;;;;;5105149;28;20302;-68
2023/01/12 00:04:10;;;;;;;14.13;5.30;;;9.20;99.90;;;;;;5090472;28;20203;-68
2023/01/12 00:06:37;;;;;;;15.07;4.30;;;9.20;99.90;;;;;;5105919;28;20275;-68
2023/01/12 00:09:06;;;;;;;14.43;3.87;;;9.20;99.90;;;;;;5104849;28;20251;-69
2023/01/12 00:11:34;;;;;;;17.07;3.90;;;9.20;99.90;;;;;;5102724;28;20224;-68
2023/01/12 00:14:01;;;;;;;20.30;4.60;;;9.30;99.90;;;;;;5105370;28;20199;-68
2023/01/12 00:16:33;;;;;;;17.77;4.63;;;9.30;99.90;;;;;;5104486;27;20203;-68
2023/01/12 00:19:00;;;;;;;19.50;4.70;;;9.30;99.90;;;;;;5105768;28;20640;-67
2023/01/12 00:21:27;;;;;;;16.23;4.50;;;9.30;99.90;;;;;;5106654;28;20571;-67
2023/01/12 00:23:54;;;;;;;19.37;4.10;;;9.30;99.90;;;;;;5105605;28;20194;-68
2023/01/12 00:26:21;;;;;;;11.67;4.00;;;9.30;99.90;;;;;;5109432;27;20196;-68
2023/01/12 00:28:48;;;;;;;14.40;3.80;;;9.30;99.90;;;;;;5109646;27;20654;-69
2023/01/12 00:31:14;;;;;;;13.93;4.00;;;9.30;99.90;;;;;;5106687;28;20211;-68
2023/01/12 00:33:41;;;;;;;16.33;4.30;;;9.30;99.90;;;;;;5105869;28;20213;-68
2023/01/12 00:36:12;;;;;;;20.83;4.40;;;9.30;99.90;;;;;;5109816;27;20195;-68
2023/01/12 00:38:39;;;;;;;16.77;4.63;;;9.40;99.90;;;;;;5103684;28;20207;-67
2023/01/12 00:41:07;;;;;;;16.23;4.10;;;9.40;99.90;;;;;;5108023;27;20232;-68
2023/01/12 00:46:31;;;;;;;24.53;4.20;;;9.40;99.90;;;;;;5105837;27;20290;-68
2023/01/12 00:48:58;;;;;;;19.17;4.53;;;9.40;99.90;;;;;;5101810;28;20313;-69
2023/01/12 00:51:25;;;;;;;18.33;4.70;;;9.40;99.90;;;;;;5106607;28;20557;-67
2023/01/12 00:53:51;;;;;;;13.70;3.83;;;9.40;99.90;;;;;;5105953;27;20691;-67
2023/01/12 00:56:18;;;;;;;20.20;5.17;;;9.30;99.90;;;;;;5107842;28;20750;-67
2023/01/12 00:58:45;;;;;;;16.90;4.73;;;9.40;99.90;;;;;;5091956;28;20681;-67
2023/01/12 01:01:12;;;;;;;22.40;4.10;;;9.30;99.90;;;;;;5086379;28;20259;-67
2023/01/12 01:03:39;;;;;;;15.07;4.03;;;9.30;99.90;;;;;;5106102;27;20206;-67
2023/01/12 01:06:06;;;;;;;16.43;5.00;;;9.30;99.90;;;;;;5103028;28;20195;-67
2023/01/12 01:08:36;;;;;;;20.53;4.37;;;9.30;99.90;;;;;;5103995;27;20246;-67
2023/01/12 01:11:08;;;;;;;13.47;4.30;;;9.30;99.90;;;;;;5100212;27;20195;-67
2023/01/12 01:13:36;;;;;;;15.50;4.47;;;9.30;99.90;;;;;;5108022;28;20237;-68
2023/01/12 01:16:04;;;;;;;19.80;4.90;;;9.30;99.90;;;;;;5102775;28;20203;-67
2023/01/12 01:18:31;;;;;;;18.50;4.67;;;9.40;99.90;;;;;;5102826;28;20209;-66
2023/01/12 01:20:58;;;;;;;21.13;5.20;;;9.40;99.90;;;;;;5105579;28;20294;-67
2023/01/12 01:23:26;;;;;;;17.87;4.80;;;9.40;99.90;;;;;;5103343;28;20205;-67
2023/01/12 01:25:53;;;;;;;25.23;6.00;;;9.40;99.90;;;;;;5086593;28;20196;-68
2023/01/12 01:28:21;;;;;;;25.87;5.00;;;9.30;99.90;;;;;;5099362;28;20231;-67
2023/01/12 01:30:49;;;;;;;20.97;6.17;;;9.40;99.90;;;;;;5084541;28;20231;-67
2023/01/12 01:33:16;;;;;;;22.27;6.00;;;9.30;99.90;;;;;;5086431;28;20280;-67
2023/01/12 01:35:43;;;;;;;18.63;5.90;;;9.40;99.90;;;;;;5100788;28;20291;-67
2023/01/12 01:38:09;;;;;;;27.50;7.00;;;9.30;99.90;;;;;;5108825;28;20206;-68
2023/01/12 01:40:42;;;;;;;22.07;6.07;;;9.40;99.90;;;;;;5102688;28;20290;-67
2023/01/12 01:43:12;;;;;;;21.73;5.87;;;9.40;99.90;;;;;;5095061;28;20241;-68
2023/01/12 01:45:42;;;;;;;18.77;5.77;;;9.40;99.90;;;;;;5101026;28;20661;-69
2023/01/12 01:48:13;;;;;;;21.90;6.10;;;9.40;99.90;;;;;;5103669;28;20276;-69
2023/01/12 01:50:45;;;;;;;20.20;6.37;;;9.40;99.90;;;;;;5102521;28;20594;-68
2023/01/12 01:53:18;;;;;;;21.43;6.23;;;9.40;99.90;;;;;;5102688;28;20674;-68
2023/01/12 01:55:57;;;;;;;16.30;6.30;;;9.40;99.90;;;;;;5098566;28;20290;-69
2023/01/12 01:58:33;;;;;;;30.73;7.17;;;9.40;99.90;;;;;;5095717;28;20210;-68
2023/01/12 02:01:00;;;;;;;17.50;5.83;;;9.40;99.90;;;;;;5082718;28;20205;-69
2023/01/12 02:03:27;;;;;;;23.13;7.30;;;9.40;99.90;;;;;;5106862;28;20207;-69
2023/01/12 02:05:56;;;;;;;20.47;6.10;;;9.40;99.90;;;;;;5106077;28;20223;-68
2023/01/12 02:08:47;;;;;;;21.90;6.80;;;9.40;99.90;;;;;;5099683;28;20614;-68
2023/01/12 02:16:58;;;;;;;23.53;7.47;;;9.50;99.90;;;;;;5106421;28;20737;-68
2023/01/12 02:19:31;;;;;;;15.37;6.63;;;9.40;99.90;;;;;;5100646;28;20219;-68
2023/01/12 02:22:27;;;;;;;18.40;7.10;;;9.40;99.90;;;;;;5085813;28;20217;-69
2023/01/12 02:25:29;;;;;;;21.30;6.50;;;9.40;99.90;;;;;;5083673;28;20202;-67
2023/01/12 02:28:20;;;;;;;15.20;6.40;;;9.40;99.90;;;;;;5104089;28;20201;-67
2023/01/12 02:31:15;;;;;;;21.53;6.83;;;9.40;99.90;;;;;;5097528;28;20222;-67
2023/01/12 02:33:54;;;;;;;12.67;5.63;;;9.40;99.90;;;;;;5103186;28;20208;-67
2023/01/12 02:36:21;;;;;;;15.00;5.67;;;9.40;99.90;;;;;;5105468;28;20249;-67
2023/01/12 02:39:18;;;;;;;13.83;5.40;;;9.30;99.90;;;;;;5100268;28;20203;-67
2023/01/12 02:44:47;;;;;;;12.43;4.23;;;9.30;99.90;;;;;;5098792;28;20206;-67
2023/01/12 02:47:42;;;;;;;12.67;4.40;;;9.30;99.90;;;;;;5104365;28;20218;-67
2023/01/12 02:50:13;;;;;;;10.77;3.63;;;9.30;99.90;;;;;;5106010;28;20636;-67
2023/01/12 02:52:45;;;;;;;7.77;3.60;;;9.30;99.90;;;;;;5107445;28;20287;-67
2023/01/12 02:55:14;;;;;;;8.00;3.53;;;9.40;99.90;;;;;;5107407;28;20206;-67
2023/01/12 02:57:42;;;;;;;8.27;3.00;;;9.40;99.90;;;;;;5105262;28;20201;-67
2023/01/12 03:00:11;;;;;;;10.27;3.03;;;9.40;99.90;;;;;;5108174;28;20671;-68
2023/01/12 03:02:38;;;;;;;8.20;2.80;;;9.40;99.90;;;;;;5104688;28;20677;-68
2023/01/12 03:05:05;;;;;;;9.53;2.70;;;9.40;99.90;;;;;;5089157;28;20675;-68
2023/01/12 03:07:36;;;;;;;8.37;3.07;;;9.30;99.90;;;;;;5095586;28;20235;-68
2023/01/12 03:10:21;;;;;;;12.30;3.10;;;9.40;99.90;;;;;;5105344;28;20229;-68
2023/01/12 03:12:50;;;;;;;9.33;3.23;;;9.30;99.90;;;;;;5108603;28;20235;-68
2023/01/12 03:15:18;;;;;;;12.03;2.97;;;9.30;99.90;;;;;;5107267;28;20687;-69
2023/01/12 03:17:58;;;;;;;8.60;2.30;;;9.30;99.90;;;;;;5106912;28;20281;-67
2023/01/12 03:20:39;;;;;;;6.40;3.40;;;9.30;99.90;;;;;;5102468;28;20234;-68
2023/01/12 03:23:25;;;;;;;8.07;2.30;;;9.30;99.90;;;;;;5109585;27;20198;-68
2023/01/12 03:25:55;;;;;;;10.37;2.23;;;9.30;99.90;;;;;;5110421;28;20237;-68
2023/01/12 03:28:25;;;;;;;6.57;2.20;;;9.30;99.90;;;;;;5106161;28;20245;-69
2023/01/12 03:31:01;;;;;;;9.80;2.40;;;9.30;99.90;;;;;;5105906;28;20598;-68
2023/01/12 03:33:28;;;;;;;6.27;2.50;;;9.30;99.90;;;;;;5107449;28;20572;-68
2023/01/12 03:36:06;;;;;;;10.40;2.63;;;9.20;99.90;;;;;;5105092;28;20567;-68
2023/01/12 03:38:56;;;;;;;6.37;2.37;;;9.30;99.90;;;;;;5104180;27;20198;-68
2023/01/12 03:41:51;;;;;;;8.30;2.80;;;9.20;99.90;;;;;;5107254;28;20206;-67
2023/01/12 03:44:27;;;;;;;7.67;2.40;;;9.30;99.90;;;;;;5091966;28;20210;-67
2023/01/12 03:47:00;;;;;;;11.63;2.80;;;9.20;99.90;;;;;;5105423;28;20213;-68
2023/01/12 03:49:42;;;;;;;8.07;2.53;;;9.20;99.90;;;;;;5104506;27;20194;-68
2023/01/12 03:52:09;;;;;;;6.70;2.73;;;9.20;99.90;;;;;;5099900;28;20286;-69
2023/01/12 03:54:38;;;;;;;8.10;2.60;;;9.20;99.90;;;;;;5111417;27;20284;-68
2023/01/12 03:57:08;;;;;;;8.80;2.50;;;9.20;99.90;;;;;;5108230;28;20279;-68
2023/01/12 03:59:35;;;;;;;5.07;2.53;;;9.20;99.90;;;;;;5105463;28;20199;-68
2023/01/12 04:02:02;;;;;;;8.00;3.00;;;9.20;99.90;;;;;;5105219;28;20214;-68
2023/01/12 04:04:29;;;;;;;12.47;2.87;;;9.20;99.90;;;;;;5107733;28;20233;-68
2023/01/12 04:06:56;;;;;;;8.37;3.50;;;9.20;99.90;;;;;;5105409;28;20635;-69
2023/01/12 04:09:24;;;;;;;6.47;2.40;;;9.20;99.90;;;;;;5104937;28;20208;-68
2023/01/12 04:12:10;;;;;;;9.10;2.87;;;9.20;99.90;;;;;;5104944;28;20227;-69
2023/01/12 04:14:44;;;;;;;4.90;2.53;;;9.20;99.90;;;;;;5105574;28;20734;-68
2023/01/12 04:17:14;;;;;;;7.83;2.43;;;9.20;99.90;;;;;;5105593;28;20558;-67
2023/01/12 04:19:41;;;;;;;11.10;3.10;;;9.20;99.90;;;;;;5104594;27;20247;-68
2023/01/12 04:24:58;;;;;;;8.23;2.70;;;9.20;99.90;;;;;;5100008;28;20213;-68
2023/01/12 04:27:24;;;;;;;7.63;2.93;;;9.20;99.90;;;;;;5108232;27;20568;-67
2023/01/12 04:29:52;;;;;;;8.77;2.27;;;9.20;99.90;;;;;;5105274;27;20223;-67
2023/01/12 04:32:18;;;;;;;6.97;2.40;;;9.20;99.90;;;;;;5104729;28;20262;-68
2023/01/12 04:34:45;;;;;;;8.07;2.80;;;9.20;99.90;;;;;;5107011;27;20199;-68
2023/01/12 04:37:12;;;;;;;7.93;2.23;;;9.10;99.90;;;;;;5093441;28;20218;-68
2023/01/12 04:39:39;;;;;;;7.07;2.10;;;9.10;99.90;;;;;;5101175;28;20292;-68
2023/01/12 04:42:59;;;;;;;5.70;2.30;;;9.10;99.90;;;;;;5102812;28;20202;-68
2023/01/12 04:44:52;;;;;;;6.03;2.73;;;9.10;99.90;;;;;;5102054;28;20208;-68
2023/01/12 04:47:20;;;;;;;5.40;2.20;;;9.00;99.90;;;;;;5103916;28;20229;-68
2023/01/12 04:49:47;;;;;;;6.40;2.13;;;9.00;99.90;;;;;;5106785;27;20226;-68
2023/01/12 04:52:13;;;;;;;11.20;2.40;;;9.00;99.90;;;;;;5102302;28;20531;-69
2023/01/12 04:54:40;;;;;;;7.80;2.20;;;9.00;99.90;;;;;;5100823;28;20214;-68
2023/01/12 04:57:07;;;;;;;8.17;1.90;;;9.00;99.90;;;;;;5090827;28;20234;-67
2023/01/12 04:59:34;;;;;;;9.43;2.30;;;9.00;99.90;;;;;;5105664;28;20203;-67
2023/01/12 05:02:00;;;;;;;6.67;2.10;;;9.00;99.90;;;;;;5105462;28;20236;-68
2023/01/12 05:04:27;;;;;;;10.97;2.30;;;9.00;99.90;;;;;;5105206;28;20232;-68
2023/01/12 05:06:54;;;;;;;8.47;2.17;;;9.00;99.90;;;;;;5100955;28;20206;-68
2023/01/12 05:12:06;;;;;;;3.47;1.90;;;9.00;99.90;;;;;;5106591;28;20267;-68
2023/01/12 05:14:33;;;;;;;3.37;1.97;;;9.10;99.90;;;;;;5108121;28;20203;-68
2023/01/12 05:17:00;;;;;;;11.00;2.00;;;9.10;99.90;;;;;;5082555;28;20253;-67
2023/01/12 05:19:26;;;;;;;6.57;1.80;;;9.10;99.90;;;;;;5100330;28;20206;-69
2023/01/12 05:21:53;;;;;;;8.53;2.23;;;9.10;99.90;;;;;;5104669;28;20229;-68
2023/01/12 05:24:20;;;;;;;6.20;1.87;;;9.20;99.90;;;;;;5111128;28;20240;-68
2023/01/12 05:26:47;;;;;;;6.77;1.80;;;9.20;99.90;;;;;;5107855;27;20226;-69
2023/01/12 05:29:14;;;;;;;9.37;2.33;;;9.20;99.90;;;;;;5109642;28;20286;-68
2023/01/12 05:31:40;;;;;;;5.80;1.87;;;9.20;99.90;;;;;;5104989;28;20236;-68
2023/01/12 05:34:07;;;;;;;6.10;1.80;;;9.20;99.90;;;;;;5102963;28;20202;-69
2023/01/12 05:36:34;;;;;;;5.83;1.80;;;9.30;99.90;;;;;;5101356;28;20294;-69
2023/01/12 05:39:00;;;;;;;4.83;1.97;;;9.30;99.90;;;;;;5105085;28;20205;-68
2023/01/12 05:41:27;;;;;;;7.27;1.93;;;9.30;99.90;;;;;;5086887;28;20224;-69
2023/01/12 05:43:54;;;;;;;4.77;1.80;;;9.30;99.90;;;;;;5105242;28;20206;-67
2023/01/12 05:46:24;;;;;;;5.70;2.23;;;9.30;99.90;;;;;;5101467;28;20208;-67
2023/01/12 05:48:53;;;;;;;6.10;1.70;;;9.40;99.90;;;;;;5089977;28;20281;-67
2023/01/12 05:51:20;;;;;;;8.67;2.20;;;9.40;99.90;;;;;;5108310;28;20230;-69
2023/01/12 05:53:47;;;;;;;4.63;1.83;;;9.40;99.90;;;;;;5108162;28;20198;-68
2023/01/12 05:56:20;;;;;;;2.17;1.50;;;9.40;99.90;;;;;;5100800;28;20689;-68
2023/01/12 05:58:51;;;;;;;3.93;1.70;;;9.40;99.90;;;;;;5098737;28;20647;-68
2023/01/12 06:01:19;;;;;;;5.17;1.50;;;9.40;99.90;;;;;;5102407;28;20259;-68
2023/01/12 06:03:54;;;;;;;5.93;2.17;;;9.40;99.90;;;;;;5100349;28;20799;-68
2023/01/12 06:06:24;;;;;;;5.47;1.60;;;9.50;99.90;;;;;;5102982;28;20206;-68
2023/01/12 06:08:52;;;;;;;7.10;1.80;;;9.50;99.90;;;;;;5104835;28;20632;-68
2023/01/12 06:14:05;;;;;;;4.43;1.90;;;9.50;99.90;;;;;;5106265;28;20283;-68
2023/01/12 06:16:42;;;;;;;6.33;2.13;;;9.50;99.90;;;;;;5102430;28;20231;-68
2023/01/12 06:19:09;;;;;;;4.43;1.77;;;9.40;99.90;;;;;;5103326;28;20199;-68
2023/01/12 06:21:39;;;;;;;8.07;1.90;;;9.40;99.90;;;;;;5106600;28;20647;-68
2023/01/12 06:24:06;;;;;;;3.63;1.50;;;9.50;99.90;;;;;;5107699;28;20210;-68
2023/01/12 06:26:33;;;;;;;5.90;2.13;;;9.40;99.90;;;;;;5089609;28;20692;-68
2023/01/12 06:29:00;;;;;;;4.27;1.63;;;9.40;99.90;;;;;;5106823;28;20227;-68
2023/01/12 06:31:29;;;;;;;7.00;1.67;;;9.40;99.90;;;;;;5107710;28;20219;-68
2023/01/12 06:33:56;;;;;;;4.33;1.60;;;9.40;99.90;;;;;;5107223;28;20191;-69
2023/01/12 06:36:23;;;;;;;3.93;1.80;;;9.40;99.90;;;;;;5108763;27;20606;-68
2023/01/12 06:38:50;;;;;;;4.87;1.63;;;9.40;99.90;;;;;;5106524;27;20199;-69
2023/01/12 06:44:02;;;;;;;4.30;1.90;;;9.40;99.90;;;;;;5104793;28;20286;-68
2023/01/12 06:46:29;;;;;;;8.20;3.20;;;9.40;99.90;;;;;;5110815;28;20215;-68
2023/01/12 06:48:57;;;;;;;6.20;2.27;;;9.30;99.90;;;;;;5087428;28;20282;-69
2023/01/12 06:51:24;;;;;;;3.93;2.23;;;9.20;99.90;;;;;;5107990;28;20309;-68
2023/01/12 06:53:51;;;;;;;5.80;1.90;;;9.40;99.90;;;;;;5106427;28;20718;-68
2023/01/12 06:56:18;;;;;;;4.50;1.60;;;9.40;99.90;;;;;;5105204;28;20212;-68
2023/01/12 06:58:45;;;;;;;5.73;1.67;;;9.40;99.90;;;;;;5109139;27;20206;-69
2023/01/12 07:01:12;;;;;;;4.40;2.03;;;9.40;99.90;;;;;;5106717;28;20222;-69
2023/01/12 07:03:39;;;;;;;4.43;1.73;;;9.40;99.90;;;;;;5106616;28;20249;-69
2023/01/12 07:06:06;;;;;;;3.93;1.73;;;9.40;99.90;;;;;;5107435;28;20202;-68
2023/01/12 07:08:34;;;;;;;7.53;1.90;;;9.40;99.90;;;;;;5106346;28;20203;-68
2023/01/12 07:11:06;;;;;;;5.03;3.53;;;9.50;99.90;;;;;;5101342;27;20222;-68
2023/01/12 07:13:34;;;;;;;3.93;1.63;;;9.50;99.90;;;;;;5089542;28;20201;-68
2023/01/12 07:16:06;;;;;;;4.40;2.00;;;9.50;99.90;;;;;;5107216;28;20221;-68
2023/01/12 07:18:33;;;;;;;3.80;1.80;;;9.50;99.90;;;;;;5107654;28;20206;-68
2023/01/12 07:21:05;;;;;;;4.27;1.67;;;9.50;99.90;;;;;;5099813;28;20215;-68
2023/01/12 07:23:32;;;;;;;2.13;1.80;;;9.50;99.90;;;;;;5105131;28;20689;-68
2023/01/12 07:25:58;;;;;;;3.47;1.50;;;9.50;99.90;;;;;;5101908;28;20206;-67
2023/01/12 07:28:26;;;;;;;4.17;2.07;;;9.50;99.90;;;;;;5104943;28;20693;-67
2023/01/12 07:30:59;;;;;;;4.43;1.70;;;9.60;99.90;;;;;;5099898;28;20238;-68
2023/01/12 07:33:28;;;;;;;3.63;2.00;;;9.60;99.90;;;;;;5101734;27;20678;-68
2023/01/12 07:36:02;;;;;;;2.93;1.77;;;9.60;99.90;;;;;;5104775;27;20202;-68
2023/01/12 07:38:30;;;;;;;2.80;2.00;;;9.60;99.90;;;;;;5083401;28;20206;-69
2023/01/12 07:42:21;;;;;;;2.03;1.70;;;9.70;99.90;;;;;;5105344;28;20470;-69
2023/01/12 07:43:52;;;;;;;2.73;1.97;;;9.70;99.90;;;;;;5104562;28;20202;-67
2023/01/12 07:46:28;;;;;;;2.30;2.10;;;9.70;99.90;;;;;;5106329;27;20231;-68
2023/01/12 07:48:55;;;;;;;2.97;2.27;;;9.80;99.90;;;;;;5088878;28;20191;-68
2023/01/12 07:51:21;;;;;;;3.73;2.30;;;9.80;99.90;;;;;;5098229;28;20231;-67
2023/01/12 07:53:48;;;;;;;3.90;2.40;;;9.80;99.90;;;;;;5094865;28;20225;-66
2023/01/12 07:56:15;;;;;;;3.50;2.33;;;9.80;99.90;;;;;;5106431;27;20290;-69
2023/01/12 07:58:46;;;;;;;3.30;2.10;;;9.90;99.90;;;;;;5097845;28;20256;-68
2023/01/12 08:01:13;;;;;;;3.17;2.33;;;9.90;99.90;;;;;;5100979;27;20507;-68
2023/01/12 08:03:39;;;;;;;2.80;2.00;;;10.00;99.90;;;;;;5103075;28;20199;-67
2023/01/12 08:06:06;;;;;;;4.60;2.60;;;10.00;99.90;;;;;;5103800;27;20199;-68
2023/01/12 08:08:33;;;;;;;4.53;2.63;;;10.00;99.90;;;;;;5103591;28;20734;-68
2023/01/12 08:11:02;;;;;;;3.37;2.17;;;10.00;99.90;;;;;;5090048;28;20250;-69
2023/01/12 08:13:29;;;;;;;3.23;2.30;;;10.00;99.90;;;;;;5105940;28;20252;-68
2023/01/12 08:15:57;;;;;;;2.47;2.23;;;10.10;99.90;;;;;;5098332;28;20191;-68
2023/01/12 08:18:32;;;;;;;4.70;2.67;;;10.10;99.90;;;;;;5084513;28;20191;-67
2023/01/12 08:21:02;;;;;;;3.77;2.57;;;10.10;99.90;;;;;;5101871;28;20209;-68
2023/01/12 08:23:36;;;;;;;4.50;2.80;;;10.10;99.90;;;;;;5086027;28;20589;-67
2023/01/12 08:26:09;;;;;;;4.70;2.90;;;10.10;99.90;;;;;;5085307;28;20295;-68
2023/01/12 08:28:42;;;;;;;6.60;2.70;;;10.20;99.90;;;;;;5106614;28;20242;-69
2023/01/12 08:31:12;;;;;;;3.10;2.40;;;10.20;99.90;;;;;;5101331;27;20234;-69
2023/01/12 08:33:40;;;;;;;4.17;2.70;;;10.20;99.90;;;;;;5097356;28;20290;-70
2023/01/12 08:36:10;;;;;;;3.00;2.70;;;10.20;99.90;;;;;;5085390;28;20694;-69
2023/01/12 08:38:42;;;;;;;4.40;3.17;;;10.30;99.90;;;;;;5103716;28;20199;-69
2023/01/12 08:44:09;;;;;;;4.03;3.30;;;10.30;99.90;;;;;;5110612;28;20285;-68
2023/01/12 08:46:43;;;;;;;6.00;4.63;;;10.40;99.90;;;;;;5104186;27;20215;-69
2023/01/12 08:49:13;;;;;;;5.20;3.80;;;10.40;99.90;;;;;;5099792;28;20199;-69
2023/01/12 08:51:42;;;;;;;8.43;4.40;;;10.40;99.90;;;;;;5089253;27;20219;-69
2023/01/12 08:54:11;;;;;;;8.77;4.70;;;10.40;99.90;;;;;;5104883;28;20206;-69
2023/01/12 08:56:38;;;;;;;7.17;4.77;;;10.40;99.90;;;;;;5106848;27;20206;-69
2023/01/12 08:59:07;;;;;;;14.47;5.77;;;10.50;99.90;;;;;;5099626;28;20234;-69
2023/01/12 09:01:34;;;;;;;7.90;5.43;;;10.40;99.90;;;;;;5101427;28;20222;-69
2023/01/12 09:04:01;;;;;;;9.93;5.00;;;10.50;99.90;;;;;;5100119;27;20206;-70
2023/01/12 09:06:34;;;;;;;5.63;4.20;;;10.60;99.90;;;;;;5090293;28;20195;-70
2023/01/12 09:09:04;;;;;;;7.73;4.23;;;10.60;99.90;;;;;;5098817;28;20587;-69
2023/01/12 09:11:31;;;;;;;8.30;4.27;;;10.60;99.90;;;;;;5105101;28;20602;-69
2023/01/12 09:13:58;;;;;;;6.63;4.13;;;10.70;99.90;;;;;;5104603;28;20196;-69
2023/01/12 09:16:28;;;;;;;6.10;3.30;;;10.70;99.90;;;;;;5105141;28;20215;-69
2023/01/12 09:18:55;;;;;;;5.70;3.30;;;10.70;99.90;;;;;;5104355;28;20199;-69
2023/01/12 09:21:23;;;;;;;8.27;3.43;;;10.70;99.90;;;;;;5105291;27;20200;-69
2023/01/12 09:23:54;;;;;;;5.87;3.63;;;10.70;99.90;;;;;;5103414;28;20224;-69
2023/01/12 09:26:23;;;;;;;5.83;2.83;;;10.70;99.90;;;;;;5104661;27;20596;-69
2023/01/12 09:28:50;;;;;;;6.63;3.33;;;10.70;99.90;;;;;;5100294;28;20204;-69
2023/01/12 09:31:22;;;;;;;5.73;3.07;;;10.80;99.90;;;;;;5099821;28;20284;-71
2023/01/12 09:33:49;;;;;;;6.07;2.57;;;10.80;99.90;;;;;;5104248;28;20199;-69
2023/01/12 09:36:22;;;;;;;3.20;2.17;;;10.80;99.90;;;;;;5107748;28;20195;-69
2023/01/12 09:38:50;;;;;;;5.97;2.60;;;10.90;99.90;;;;;;5098142;28;20239;-69
2023/01/12 09:47:19;;;;;;;3.67;2.20;;;10.80;99.90;;;;;;5107322;28;20212;-70
2023/01/12 09:49:55;;;;;;;3.43;1.90;;;10.80;99.90;;;;;;5105727;28;20204;-69
2023/01/12 09:52:38;;;;;;;3.57;1.60;;;10.80;99.90;;;;;;5102136;28;20215;-69
2023/01/12 09:55:08;;;;;;;2.50;1.97;;;10.80;99.90;;;;;;5104632;28;20195;-69
2023/01/12 09:58:22;;;;;;;3.53;2.00;;;10.90;99.90;;;;;;5109707;27;20204;-69
2023/01/12 10:00:51;;;;;;;3.63;2.27;;;10.90;99.90;;;;;;5105658;28;20285;-70
2023/01/12 10:03:37;;;;;;;1.40;1.30;;;10.90;99.90;;;;;;5091677;28;20695;-69
2023/01/12 10:06:05;;;;;;;2.63;1.70;;;10.90;99.90;;;;;;5099252;27;20209;-70
2023/01/12 10:08:37;;;;;;;5.67;1.90;;;10.90;99.90;;;;;;5090198;28;20207;-69
2023/01/12 10:11:15;;;;;;;2.90;1.73;;;10.90;99.90;;;;;;5110587;27;20203;-69
2023/01/12 10:14:01;;;;;;;4.30;1.50;;;11.00;99.90;;;;;;5108156;28;20207;-70
2023/01/12 10:16:39;;;;;;;3.40;1.53;;;11.00;99.90;;;;;;5108582;28;20246;-70
2023/01/12 10:19:20;;;;;;;3.33;1.57;;;11.00;99.90;;;;;;5108244;27;20563;-69
2023/01/12 10:21:49;;;;;;;2.70;2.20;;;11.00;99.90;;;;;;5092883;28;20202;-70
2023/01/12 10:24:20;;;;;;;4.77;2.13;;;11.00;99.90;;;;;;5105709;28;20277;-70
2023/01/12 10:26:55;;;;;;;4.00;2.20;;;11.00;99.90;;;;;;5107875;27;20245;-70
2023/01/12 10:29:22;;;;;;;3.03;1.60;;;11.00;99.90;;;;;;5111544;28;20240;-70
2023/01/12 10:31:50;;;;;;;2.47;2.03;;;11.10;99.90;;;;;;5107523;27;20245;-69
2023/01/12 10:34:17;;;;;;;3.83;2.33;;;11.50;99.90;;;;;;5107724;28;20589;-71
2023/01/12 10:36:48;;;;;;;6.20;2.10;;;11.00;99.90;;;;;;5104132;28;20241;-69
2023/01/12 10:39:30;;;;;;;4.00;2.17;;;11.10;99.90;;;;;;5090301;28;20340;-70
2023/01/12 10:45:19;;;;;;;6.17;2.83;;;11.10;99.90;;;;;;5108274;27;20282;-70
2023/01/12 10:47:48;;;;;;;4.80;2.33;;;11.10;99.90;;;;;;5102745;28;20218;-69
2023/01/12 10:50:31;;;;;;;7.17;3.00;;;11.20;99.90;;;;;;5090040;28;20203;-70
2023/01/12 10:53:04;;;;;;;8.03;3.13;;;11.20;99.90;;;;;;5101284;28;20271;-70
2023/01/12 10:55:36;;;;;;;7.70;3.50;;;11.20;99.90;;;;;;5105740;28;20236;-70
2023/01/12 10:58:03;;;;;;;6.63;2.90;;;11.30;99.90;;;;;;5101291;28;20789;-70
2023/01/12 11:00:30;;;;;;;7.33;2.70;;;11.30;99.90;;;;;;5105016;27;20191;-69
2023/01/12 11:02:57;;;;;;;5.17;2.80;;;11.30;99.90;;;;;;5104922;27;20441;-70
2023/01/12 11:05:36;;;;;;;6.80;2.70;;;11.30;99.90;;;;;;5100240;28;20196;-70
2023/01/12 11:08:22;;;;;;;11.67;3.40;;;11.30;99.90;;;;;;5103861;28;20290;-70
2023/01/12 11:10:49;;;;;;;3.43;2.20;;;11.40;99.90;;;;;;5107393;27;20191;-70
2023/01/12 11:13:35;;;;;;;5.77;1.97;;;11.40;99.90;;;;;;5104609;28;20314;-70
2023/01/12 11:16:21;;;;;;;6.30;2.00;;;11.40;99.90;;;;;;5107534;28;20213;-71
2023/01/12 11:19:09;;;;;;;2.30;1.77;;;11.40;99.90;;;;;;5106258;27;20191;-69
2023/01/12 11:21:39;;;;;;;4.33;1.80;;;11.30;99.90;;;;;;5107190;28;20219;-70
2023/01/12 11:24:13;;;;;;;3.67;1.60;;;11.30;99.90;;;;;;5107943;27;20204;-70
2023/01/12 11:26:54;;;;;;;2.07;1.63;;;11.40;99.90;;;;;;5101608;28;20203;-70
2023/01/12 11:29:32;;;;;;;2.03;1.80;;;11.40;99.90;;;;;;5099968;28;20283;-70
2023/01/12 11:32:23;;;;;;;2.27;1.63;;;11.40;99.90;;;;;;5106229;28;20215;-69
2023/01/12 11:34:59;;;;;;;2.40;1.70;;;11.40;99.90;;;;;;5102508;28;20525;-69
2023/01/12 11:37:27;;;;;;;1.73;1.50;;;11.40;99.90;;;;;;5106630;28;20221;-69
2023/01/12 11:40:06;;;;;;;1.77;1.67;;;11.40;99.90;;;;;;5089437;27;20624;-70
2023/01/12 11:45:24;;;;;;;1.20;1.10;;;11.40;99.90;;;;;;5110485;27;20277;-70
2023/01/12 11:47:57;;;;;;;1.37;1.10;;;11.40;99.90;;;;;;5106716;28;20221;-69
2023/01/12 11:50:33;;;;;;;1.93;1.17;;;11.50;99.90;;;;;;5108238;28;20547;-70
2023/01/12 11:53:03;;;;;;;1.20;1.10;;;11.40;99.90;;;;;;5097306;28;20827;-70
2023/01/12 11:55:48;;;;;;;2.03;1.30;;;11.40;99.90;;;;;;5105283;28;20724;-70
2023/01/12 11:58:29;;;;;;;1.10;1.00;;;11.50;99.90;;;;;;5100461;27;20278;-70
2023/01/12 12:01:14;;;;;;;1.40;1.00;;;11.50;99.90;;;;;;5102577;28;20656;-70
2023/01/12 12:03:54;;;;;;;0.80;0.80;;;11.40;99.90;;;;;;5097724;27;20598;-70
2023/01/12 12:06:58;;;;;;;0.70;0.70;;;11.50;99.90;;;;;;5103682;28;20272;-69
2023/01/12 12:09:47;;;;;;;0.70;0.70;;;11.40;99.90;;;;;;5105092;28;20226;-70
2023/01/12 12:12:33;;;;;;;0.60;0.60;;;11.40;99.90;;;;;;5108010;27;20783;-70
2023/01/12 12:15:35;;;;;;;0.60;0.60;;;11.40;99.90;;;;;;5110293;27;20714;-70
2023/01/12 12:18:28;;;;;;;0.80;0.80;;;11.40;99.90;;;;;;5085243;28;20215;-70
2023/01/12 12:21:29;;;;;;;1.93;0.80;;;11.40;99.90;;;;;;5102186;27;20195;-71
2023/01/12 12:24:20;;;;;;;1.03;0.83;;;11.40;99.90;;;;;;5104139;27;20303;-71
2023/01/12 12:27:19;;;;;;;1.03;0.80;;;11.40;99.90;;;;;;5106676;27;20294;-70
2023/01/12 12:30:04;;;;;;;1.53;0.80;;;11.40;99.90;;;;;;5106844;28;20206;-70
2023/01/12 12:32:43;;;;;;;0.73;0.73;;;11.40;99.90;;;;;;5105479;28;20223;-70
2023/01/12 12:35:40;;;;;;;0.70;0.70;;;11.40;99.90;;;;;;5105012;27;20205;-70
2023/01/12 12:38:19;;;;;;;0.93;0.73;;;11.50;99.90;;;;;;5104957;28;20211;-70
2023/01/12 12:47:56;;;;;;;0.70;0.70;;;11.60;99.90;;;;;;5044423;28;20248;-70
2023/01/12 12:50:28;;;;;;;0.80;0.80;;;11.50;99.90;;;;;;5043466;28;20211;-70
2023/01/12 12:53:15;;;;;;;1.67;0.80;;;11.50;99.90;;;;;;5042040;28;20742;-70
2023/01/12 12:55:43;;;;;;;0.63;0.63;;;11.50;99.90;;;;;;5039379;28;20197;-70
2023/01/12 12:58:22;;;;;;;0.97;0.80;;;11.50;99.90;;;;;;5042604;28;20707;-70
2023/01/12 13:00:50;;;;;;;1.43;0.90;;;11.50;99.90;;;;;;5042405;28;20279;-72
2023/01/12 13:03:38;;;;;;;0.50;0.50;;;11.40;99.90;;;;;;5041496;28;20205;-70
2023/01/12 13:06:31;;;;;;;1.23;0.80;;;11.50;99.90;;;;;;5034756;28;20202;-69
2023/01/12 13:09:18;;;;;;;2.40;0.77;;;11.40;99.90;;;;;;5032512;28;20671;-70
2023/01/12 13:11:53;;;;;;;0.90;0.70;;;11.40;99.90;;;;;;5030836;28;20212;-71
2023/01/12 13:14:27;;;;;;;1.23;0.60;;;11.40;99.90;;;;;;5039537;28;20271;-70
2023/01/12 13:17:00;;;;;;;0.77;0.70;;;11.40;99.90;;;;;;5044696;28;20221;-70
2023/01/12 13:19:44;;;;;;;0.60;0.60;;;11.40;99.90;;;;;;5041256;28;20229;-71
2023/01/12 13:22:38;;;;;;;0.60;0.60;;;11.40;99.90;;;;;;5043330;28;20275;-70
2023/01/12 13:25:22;;;;;;;1.23;1.10;;;11.40;99.90;;;;;;5042697;28;20205;-70
2023/01/12 13:27:58;;;;;;;0.90;0.60;;;11.40;99.90;;;;;;5043689;28;20209;-71
2023/01/12 13:30:28;;;;;;;0.70;0.70;;;11.40;99.90;;;;;;5039374;28;20296;-70
2023/01/12 13:32:59;;;;;;;0.60;0.60;;;11.40;99.90;;;;;;5040459;28;20697;-69
2023/01/12 13:35:31;;;;;;;0.70;0.70;;;11.40;99.90;;;;;;5038014;28;20194;-70
2023/01/12 13:38:17;;;;;;;1.20;0.97;;;11.40;99.90;;;;;;5040422;28;20609;-69
2023/01/12 13:40:44;;;;;;;0.90;0.80;;;11.40;99.90;;;;;;5038317;28;20247;-69
2023/01/12 13:43:29;;;;;;;1.23;1.00;;;11.40;99.90;;;;;;5040848;28;20213;-71
2023/01/12 13:46:02;;;;;;;1.27;0.73;;;11.40;99.90;;;;;;5042643;28;20654;-68
2023/01/12 13:48:32;;;;;;;1.50;1.17;;;11.40;99.90;;;;;;5042845;28;20193;-69
2023/01/12 13:51:28;;;;;;;1.93;1.00;;;11.40;99.90;;;;;;5035359;28;20237;-70
2023/01/12 13:54:03;;;;;;;1.00;0.90;;;11.40;99.90;;;;;;5023860;28;20208;-69
2023/01/12 13:56:30;;;;;;;0.90;0.90;;;11.40;99.90;;;;;;5033095;28;20209;-68
2023/01/12 13:58:59;;;;;;;2.93;1.00;;;11.40;99.90;;;;;;5032523;28;20229;-69
2023/01/12 14:01:33;;;;;;;1.27;0.97;;;11.40;99.90;;;;;;5031790;28;20241;-69
2023/01/12 14:04:12;;;;;;;2.80;1.40;;;11.40;99.90;;;;;;5028646;28;20440;-70